Detalii statie CORIPLANT MIHALT [0000197B]

Toti senzorii

Date Temperatura solului [C]Precipitatii [mm]Voltaj baterie [mV]Leaf Wetness [Min]HC Air temperature [C]HC Relative humidity [%]Punctul de roua [C]
medieminmaxsumaultimatimpmedieminmaxmediemediemin
2018-08-12 11:00:00 0 6884 26.75 24.4 29.28 99.68 26.6 24.4
2018-08-12 12:00:00 0 6932 30.66 30.18 31.1 94.7 29.5 28.8
2018-08-12 13:00:00 0 7040 31.6 30.87 32.36 90.96 29.7 28.5
2018-08-12 14:00:00 0 6982 60 32.91 31.61 34.59 91.83 31.2 30.1
2018-08-12 15:00:00 0 6922 31.11 28.6 33.32 93.8 29.8 27.4
2018-08-12 16:00:00 0 6914 27.28 26.51 28.29 99.04 27 26.2
2018-08-12 17:00:00 0 6826 26.44 26.2 26.65 99.4 26.2 25.9
2018-08-12 18:00:00 0 6826 25.31 24.53 26.44 99.9 25.2 24.5
2018-08-12 19:00:00 0 6854 24.19 23.73 24.47 100 24.1 23.7
2018-08-12 20:00:00 0 6718 22.24 21.07 23.59 100 22.1 21
2018-08-12 21:00:00 0 6748 20.05 19.69 20.74 100 20 19.6
2018-08-12 22:00:00 0 6748 18.78 18.1 19.48 100 18.7 18.1
2018-08-12 23:00:00 0 6738 17.7 17.16 18.23 100 17.6 17.1
2018-08-13 00:00:00 0 6738 16.53 16.09 17.18 100 16.4 16
2018-08-13 01:00:00 0 6708 15.79 15.41 16.16 100 15.7 15.4
2018-08-13 02:00:00 0 6698 15.45 15.18 15.66 100 15.4 15.1
2018-08-13 03:00:00 0 6728 15.1 14.64 15.4 100 15 14.6
2018-08-13 04:00:00 0 6718 14.58 14.39 14.72 100 14.5 14.3
2018-08-13 05:00:00 0 6708 14.2 13.96 14.42 100 14.1 13.9
2018-08-13 06:00:00 0 6668 13.93 13.77 14.11 100 13.8 13.7
2018-08-13 07:00:00 0 6708 15.12 14.41 15.69 100 15 14.4
2018-08-13 08:00:00 0 6776 16.85 15.97 17.54 100 16.8 15.9
2018-08-13 09:00:00 0 6766 20.07 18.15 23.1 100 20 18.1
2018-08-13 10:00:00 0 6786 25.91 23.75 27.6 100 25.8 23.7
2018-08-13 11:00:00 0 6816 28.33 27.21 29.69 100 28.2 27.2
2018-08-13 12:00:00 0 6932 30.68 29.27 31.65 100 30.6 29.2
2018-08-13 13:00:00 0 7020 32.51 31.24 33.62 99.49 32.3 31.2
2018-08-13 14:00:00 0 6922 33.03 31.98 33.92 95.66 32 30.6
2018-08-13 15:00:00 0 6874 60 33.5 32.43 34.4 95.66 32.5 30.7
2018-08-13 16:00:00 0 6874 32.8 32.33 33.82 92.23 31.2 29.7
2018-08-13 17:00:00 0 6854 32.6 30.57 33.69 86.67 29.9 28.1
2018-08-13 18:00:00 0 6884 30.09 29.55 30.5 98.1 29.6 28.8
2018-08-13 19:00:00 0 6884 29.48 29.24 29.89 98.57 29.1 28.4
2018-08-13 20:00:00 0 6756 25.51 22.74 29.02 100 25.4 22.7
2018-08-13 21:00:00 0 6748 21.41 20.32 22.57 100 21.3 20.3
2018-08-13 22:00:00 0 6708 19.79 19.37 20.24 100 19.7 19.3
2018-08-13 23:00:00 0 6698 18.81 18.48 19.23 100 18.7 18.4
2018-08-14 00:00:00 0 6728 18.02 17.85 18.38 100 17.9 17.8
2018-08-14 01:00:00 0 6698 17.26 16.89 17.69 100 17.2 16.8
2018-08-14 02:00:00 0 6718 16.47 16.19 16.81 100 16.4 16.1
2018-08-14 03:00:00 0 6718 15.98 15.32 16.44 100 15.9 15.3
2018-08-14 04:00:00 0 6708 15.2 14.64 15.41 100 15.1 14.6
2018-08-14 05:00:00 0 6698 14.79 14.43 15.11 100 14.7 14.4
2018-08-14 06:00:00 0 6688 14.21 14.07 14.39 100 14.1 14
2018-08-14 07:00:00 0.2 6708 15.13 14.5 15.74 100 15 14.5